.
WxDataArchive / Data Records for 2010-12-26
2010-12-25 December 2010 2010-12-27

Data Records for Sunday, 26 December 2010

Time	Temp	Chill	HIndex	Humid	Dewpt	 Wind 	HiWind	WindDir	Rain 	Barom 
-----	----	-----	------	-----	-----	------	------	-------	-----	----- 
00:00	24.1	24.1	24.1	79	18.5	1	4	0	0.00	30.177 
00:05	24.1	24.1	24.1	79	18.5	1	4	22	0.00	30.177 
00:10	24.1	24.1	24.1	78	18.3	1	7	338	0.00	30.177 
00:15	24.2	24.2	24.2	78	18.3	0	5	22	0.00	30.174 
00:20	24.2	24.2	24.2	78	18.3	1	4	45	0.00	30.174 
00:25	24.2	24.2	24.2	77	18.1	0	3	22	0.00	30.174 
00:30	24.2	24.2	24.2	77	18.1	1	5	22	0.00	30.171 
00:35	24.2	24.2	24.2	77	18.1	1	5	315	0.00	30.171 
00:40	24.4	24.4	24.4	77	18.2	1	3	90	0.00	30.171 
00:45	24.2	24.2	24.2	77	18.1	1	3	315	0.00	30.169 
00:50	24.2	24.2	24.2	77	18.1	1	4	0	0.00	30.169 
00:55	24.2	24.2	24.2	77	18.1	1	3	0	0.00	30.169 
01:00	24.2	24.2	24.2	77	18.1	1	4	45	0.00	30.169 
01:05	24.2	24.2	24.2	77	18.1	1	4	22	0.00	30.169 
01:10	24.1	24.1	24.1	78	18.3	1	3	0	0.00	30.169 
01:15	24.1	24.1	24.1	78	18.3	0	2	0	0.00	30.167 
01:20	24.1	24.1	24.1	78	18.3	1	4	315	0.00	30.167 
01:25	23.9	23.9	23.9	78	18.1	1	3	315	0.00	30.167 
01:30	23.9	23.9	23.9	78	18.1	1	3	315	0.00	30.163 
01:35	23.9	23.9	23.9	79	18.4	1	3	338	0.00	30.163 
01:40	23.9	23.9	23.9	79	18.4	1	3	0	0.00	30.163 
01:45	23.8	23.8	23.8	79	18.3	0	3	0	0.00	30.162 
01:50	23.6	23.6	23.6	80	18.4	1	3	315	0.00	30.162 
01:55	23.5	23.5	23.5	80	18.3	0	3	22	0.00	30.162 
02:00	23.5	23.5	23.5	80	18.3	0	4	22	0.00	30.162 
02:05	23.5	23.5	23.5	80	18.3	0	1	22	0.00	30.162 
02:10	23.5	23.5	23.5	80	18.3	0	2	22	0.00	30.162 
02:15	23.3	23.3	23.3	80	18.1	0	1	22	0.00	30.165 
02:20	23.3	23.3	23.3	80	18.1	0	2	270	0.00	30.165 
02:25	23.3	23.3	23.3	80	18.1	1	3	270	0.00	30.165 
02:30	23.5	23.5	23.5	80	18.3	0	2	315	0.00	30.164 
02:35	23.5	23.5	23.5	80	18.3	1	3	315	0.00	30.164 
02:40	23.5	23.5	23.5	80	18.3	0	2	292	0.00	30.164 
02:45	23.5	23.5	23.5	80	18.3	0	2	292	0.00	30.166 
02:50	23.5	23.5	23.5	80	18.3	0	3	248	0.00	30.166 
02:55	23.5	23.5	23.5	80	18.3	0	4	0	0.00	30.166 
03:00	23.5	23.5	23.5	81	18.5	0	2	292	0.00	30.167 
03:05	23.5	23.5	23.5	81	18.5	0	2	315	0.00	30.167 
03:10	23.5	23.5	23.5	81	18.5	0	3	22	0.00	30.167 
03:15	23.5	23.5	23.5	81	18.5	0	2	0	0.00	30.171 
03:20	23.5	23.5	23.5	81	18.5	0	1	0	0.00	30.171 
03:25	23.5	23.5	23.5	81	18.5	1	4	338	0.00	30.171 
03:30	23.5	23.5	23.5	81	18.5	0	2	338	0.00	30.173 
03:35	23.6	23.6	23.6	81	18.6	0	4	22	0.00	30.173 
03:40	23.6	23.6	23.6	81	18.6	0	2	248	0.00	30.173 
03:45	23.8	23.8	23.8	81	18.8	0	2	338	0.00	30.170 
03:50	23.8	23.8	23.8	81	18.8	0	2	338	0.00	30.170 
03:55	23.9	23.9	23.9	81	18.9	0	2	338	0.00	30.170 
04:00	23.9	23.9	23.9	81	18.9	0	2	338	0.00	30.164 
04:05	24.1	24.1	24.1	80	18.8	0	2	0	0.00	30.164 
04:10	24.1	24.1	24.1	80	18.8	0	2	270	0.00	30.164 
04:15	24.2	24.2	24.2	80	18.9	0	2	270	0.00	30.163 
04:20	24.2	24.2	24.2	80	18.9	0	2	0	0.00	30.163 
04:25	24.4	24.4	24.4	80	19.1	0	2	292	0.00	30.163 
04:30	24.4	24.4	24.4	80	19.1	0	3	22	0.00	30.161 
04:35	24.5	24.5	24.5	80	19.2	1	6	270	0.00	30.161 
04:40	24.5	24.5	24.5	80	19.2	0	2	270	0.00	30.161 
04:45	24.5	24.5	24.5	80	19.2	0	3	270	0.00	30.157 
04:50	24.7	24.7	24.7	80	19.4	0	3	315	0.00	30.157 
04:55	24.7	24.7	24.7	80	19.4	0	3	338	0.00	30.157 
05:00	24.7	24.7	24.7	80	19.4	1	4	292	0.00	30.158 
05:05	24.7	24.7	24.7	80	19.4	0	2	338	0.00	30.158 
05:10	24.7	24.7	24.7	81	19.7	1	4	22	0.00	30.158 
05:15	24.7	24.7	24.7	81	19.7	0	1	0	0.00	30.155 
05:20	24.7	24.7	24.7	81	19.7	1	6	0	0.00	30.155 
05:25	24.7	24.7	24.7	81	19.7	0	2	292	0.00	30.155 
05:30	24.7	24.7	24.7	81	19.7	0	3	22	0.00	30.148 
05:35	24.7	24.7	24.7	81	19.7	1	3	338	0.00	30.148 
05:40	24.7	24.7	24.7	81	19.7	0	2	338	0.00	30.148 
05:45	24.7	24.7	24.7	82	20.0	0	3	338	0.00	30.149 
05:50	24.8	24.8	24.8	82	20.1	0	3	22	0.00	30.149 
05:55	24.8	24.8	24.8	82	20.1	1	4	22	0.00	30.149 
06:00	25.0	25.0	25.0	82	20.3	0	3	22	0.00	30.151 
06:05	25.1	25.1	25.1	82	20.4	0	2	338	0.00	30.151 
06:10	25.1	25.1	25.1	82	20.4	0	2	0	0.00	30.151 
06:15	25.3	25.3	25.3	82	20.6	1	5	0	0.00	30.156 
06:20	25.4	25.4	25.4	82	20.7	0	2	0	0.00	30.156 
06:25	25.6	25.6	25.6	82	20.9	1	6	22	0.00	30.156 
06:30	25.6	25.6	25.6	82	20.9	1	3	22	0.00	30.155 
06:35	25.7	25.7	25.7	81	20.7	1	3	0	0.00	30.155 
06:40	25.7	25.7	25.7	81	20.7	1	4	338	0.00	30.155 
06:45	25.7	25.7	25.7	81	20.7	1	3	0	0.00	30.156 
06:50	25.8	25.8	25.8	81	20.8	1	4	315	0.00	30.156 
06:55	25.8	25.8	25.8	81	20.8	0	3	22	0.00	30.156 
07:00	25.8	25.8	25.8	81	20.8	0	2	22	0.00	30.157 
07:05	26.0	26.0	26.0	81	21.0	1	4	292	0.00	30.157 
07:10	26.0	26.0	26.0	81	21.0	0	2	338	0.00	30.157 
07:15	26.0	26.0	26.0	81	21.0	0	2	0	0.00	30.157 
07:20	26.0	26.0	26.0	81	21.0	0	5	292	0.00	30.157 
07:25	26.0	26.0	26.0	81	21.0	1	5	315	0.00	30.157 
07:30	26.1	26.1	26.1	80	20.8	1	7	315	0.00	30.159 
07:35	26.1	26.1	26.1	80	20.8	1	3	292	0.00	30.159 
07:40	26.1	26.1	26.1	80	20.8	1	5	22	0.00	30.159 
07:45	26.1	26.1	26.1	80	20.8	1	6	22	0.00	30.160 
07:50	26.3	26.3	26.3	79	20.7	1	3	338	0.00	30.160 
07:55	26.3	26.3	26.3	79	20.7	1	6	0	0.00	30.160 
08:00	26.3	26.3	26.3	79	20.7	1	6	22	0.00	30.157 
08:05	26.3	26.3	26.3	78	20.4	1	5	338	0.00	30.157 
08:10	26.4	26.4	26.4	78	20.5	1	4	0	0.00	30.157 
08:15	26.4	26.4	26.4	78	20.5	1	3	338	0.00	30.160 
08:20	26.4	26.4	26.4	78	20.5	0	3	338	0.00	30.160 
08:25	26.4	26.4	26.4	78	20.5	1	3	22	0.00	30.160 
08:30	26.4	26.4	26.4	78	20.5	1	4	248	0.00	30.161 
08:35	26.4	26.4	26.4	77	20.2	1	4	22	0.00	30.161 
08:40	26.6	26.6	26.6	77	20.4	0	1	22	0.00	30.161 
08:45	26.6	26.6	26.6	77	20.4	0	4	0	0.00	30.160 
08:50	26.6	26.6	26.6	77	20.4	1	6	0	0.00	30.160 
08:55	26.6	26.6	26.6	77	20.4	1	4	22	0.00	30.160 
09:00	26.7	26.7	26.7	77	20.5	1	4	0	0.00	30.161 
09:05	26.7	26.7	26.7	76	20.2	1	6	0	0.00	30.161 
09:10	26.7	26.7	26.7	75	19.9	1	5	0	0.00	30.161 
09:15	26.9	26.9	26.9	74	19.7	1	5	338	0.00	30.169 
09:20	26.9	26.9	26.9	73	19.4	2	8	0	0.00	30.169 
09:25	27.0	27.0	27.0	72	19.2	1	4	0	0.00	30.169 
09:30	27.0	27.0	27.0	72	19.2	1	4	0	0.00	30.175 
09:35	27.0	27.0	27.0	73	19.5	1	3	315	0.00	30.175 
09:40	26.9	26.9	26.9	73	19.4	1	4	0	0.00	30.175 
09:45	26.9	26.9	26.9	73	19.4	1	4	338	0.00	30.180 
09:50	26.7	26.7	26.7	73	19.2	1	4	22	0.00	30.180 
09:55	26.7	26.7	26.7	73	19.2	1	5	0	0.00	30.180 
10:00	26.6	26.6	26.6	72	18.8	1	6	338	0.00	30.184 
10:05	26.6	26.6	26.6	73	19.1	1	5	22	0.00	30.184 
10:10	26.7	26.7	26.7	73	19.2	1	2	270	0.00	30.184 
10:15	26.7	26.7	26.7	72	18.9	2	6	45	0.00	30.193 
10:20	26.7	26.7	26.7	71	18.6	1	3	0	0.00	30.193 
10:25	26.9	26.9	26.9	70	18.4	2	12	90	0.00	30.193 
10:30	27.0	27.0	27.0	70	18.5	1	4	0	0.00	30.195 
10:35	27.0	27.0	27.0	71	18.9	1	4	338	0.00	30.195 
10:40	26.9	26.9	26.9	71	18.8	2	13	22	0.00	30.195 
10:45	26.7	26.7	26.7	71	18.6	1	9	22	0.00	30.201 
10:50	26.7	26.7	26.7	71	18.6	1	3	22	0.00	30.201 
10:55	26.9	26.9	26.9	71	18.8	1	7	68	0.00	30.201 
11:00	26.7	26.7	26.7	70	18.3	2	6	338	0.00	30.204 
11:05	26.7	26.7	26.7	70	18.3	1	5	338	0.00	30.204 
11:10	26.7	26.7	26.7	71	18.6	1	3	45	0.00	30.204 
11:15	26.7	26.7	26.7	71	18.6	1	4	22	0.00	30.202 
11:20	26.7	26.7	26.7	70	18.3	2	9	22	0.00	30.202 
11:25	26.6	26.6	26.6	71	18.5	1	3	22	0.00	30.202 
11:30	26.7	26.7	26.7	70	18.3	1	3	315	0.00	30.199 
11:35	26.9	26.9	26.9	70	18.4	2	5	45	0.00	30.199 
11:40	27.0	27.0	27.0	69	18.2	1	5	90	0.00	30.199 
11:45	27.0	27.0	27.0	69	18.2	1	6	315	0.00	30.196 
11:50	26.9	26.9	26.9	69	18.1	2	7	338	0.00	30.196 
11:55	26.9	26.9	26.9	69	18.1	1	3	45	0.00	30.196 
12:00	26.9	26.9	26.9	69	18.1	2	4	0	0.00	30.195 
12:05	27.0	27.0	27.0	69	18.2	1	3	315	0.00	30.195 
12:10	27.2	27.2	27.2	68	18.1	1	5	22	0.00	30.195 
12:15	27.2	27.2	27.2	68	18.1	1	4	45	0.00	30.191 
12:20	27.2	27.2	27.2	68	18.1	2	6	0	0.00	30.191 
12:25	27.0	27.0	27.0	67	17.5	2	4	315	0.00	30.191 
12:30	27.2	27.2	27.2	68	18.1	2	6	315	0.00	30.188 
12:35	27.2	27.2	27.2	68	18.1	2	6	22	0.00	30.188 
12:40	27.3	27.3	27.3	68	18.2	1	5	22	0.00	30.188 
12:45	27.0	27.0	27.0	67	17.5	2	9	338	0.00	30.183 
12:50	27.2	27.2	27.2	68	18.1	1	7	338	0.00	30.183 
12:55	27.0	27.0	27.0	67	17.5	2	5	315	0.00	30.183 
13:00	27.0	27.0	27.0	67	17.5	2	4	315	0.00	30.179 
13:05	27.2	27.2	27.2	67	17.7	2	5	22	0.00	30.179 
13:10	27.0	27.0	27.0	67	17.5	2	4	338	0.00	30.179 
13:15	27.0	27.0	27.0	67	17.5	2	5	22	0.00	30.178 
13:20	27.0	27.0	27.0	67	17.5	1	5	338	0.00	30.178 
13:25	26.9	26.9	26.9	67	17.4	2	6	0	0.00	30.178 
13:30	26.7	26.7	26.7	67	17.2	2	5	338	0.00	30.178 
13:35	26.7	26.7	26.7	67	17.2	1	5	338	0.00	30.178 
13:40	26.7	26.7	26.7	66	16.9	2	6	338	0.00	30.178 
13:45	26.6	26.6	26.6	65	16.4	2	7	338	0.00	30.173 
13:50	26.6	26.6	26.6	66	16.8	2	7	0	0.00	30.173 
13:55	26.6	26.6	26.6	65	16.4	2	5	0	0.00	30.173 
14:00	26.7	26.7	26.7	66	16.9	2	5	315	0.00	30.176 
14:05	26.9	26.9	26.9	66	17.1	1	3	45	0.00	30.176 
14:10	27.0	27.0	27.0	66	17.2	1	4	22	0.00	30.176 
14:15	27.0	27.0	27.0	67	17.5	1	5	0	0.00	30.174 
14:20	26.7	26.7	26.7	66	16.9	2	9	292	0.00	30.174 
14:25	26.7	26.7	26.7	66	16.9	1	3	0	0.00	30.174 
14:30	26.7	26.7	26.7	66	16.9	1	4	338	0.00	30.174 
14:35	26.7	26.7	26.7	65	16.5	2	6	0	0.00	30.174 
14:40	26.9	26.9	26.9	66	17.1	1	6	315	0.00	30.174 
14:45	26.7	26.7	26.7	65	16.5	1	4	22	0.00	30.178 
14:50	26.9	26.9	26.9	64	16.4	2	5	22	0.00	30.178 
14:55	27.0	27.0	27.0	65	16.8	1	4	22	0.00	30.178 
15:00	26.9	26.9	26.9	65	16.7	2	6	22	0.00	30.178 
15:05	26.6	26.6	26.6	65	16.4	1	4	22	0.00	30.178 
15:10	26.4	26.4	26.4	66	16.6	1	4	338	0.00	30.178 
15:15	26.4	26.4	26.4	66	16.6	1	5	22	0.00	30.179 
15:20	26.3	26.3	26.3	66	16.5	1	5	0	0.00	30.179 
15:25	26.1	26.1	26.1	66	16.3	1	5	270	0.00	30.179 
15:30	26.0	26.0	26.0	66	16.2	1	4	22	0.00	30.182 
15:35	26.0	26.0	26.0	66	16.2	2	4	0	0.00	30.182 
15:40	26.0	26.0	26.0	67	16.6	1	3	0	0.00	30.182 
15:45	26.0	26.0	26.0	67	16.6	1	3	22	0.00	30.182 
15:50	25.8	25.8	25.8	66	16.0	1	5	22	0.00	30.182 
15:55	25.7	25.7	25.7	66	15.9	2	6	0	0.00	30.182 
16:00	25.7	25.7	25.7	66	15.9	1	4	45	0.00	30.187 
16:05	25.6	25.6	25.6	66	15.8	1	4	22	0.00	30.187 
16:10	25.4	25.4	25.4	66	15.7	1	4	45	0.00	30.187 
16:15	25.4	25.4	25.4	66	15.7	1	4	22	0.00	30.191 
16:20	25.3	25.3	25.3	66	15.6	2	10	338	0.00	30.191 
16:25	25.1	25.1	25.1	66	15.4	1	4	315	0.00	30.191 
16:30	25.0	25.0	25.0	66	15.3	2	5	0	0.00	30.191 
16:35	25.0	25.0	25.0	66	15.3	1	6	315	0.00	30.191 
16:40	25.0	25.0	25.0	67	15.6	0	2	292	0.00	30.191 
16:45	25.0	25.0	25.0	67	15.6	1	3	338	0.00	30.192 
16:50	25.0	25.0	25.0	68	16.0	0	2	45	0.00	30.192 
16:55	24.8	24.8	24.8	68	15.8	1	4	0	0.00	30.192 
17:00	24.7	24.7	24.7	68	15.7	1	5	0	0.00	30.193 
17:05	24.7	24.7	24.7	68	15.7	0	2	0	0.00	30.193 
17:10	24.5	24.5	24.5	68	15.5	1	3	338	0.00	30.193 
17:15	24.5	24.5	24.5	68	15.5	1	6	338	0.00	30.194 
17:20	24.2	24.2	24.2	68	15.2	1	4	45	0.00	30.194 
17:25	24.1	24.1	24.1	68	15.1	1	6	22	0.00	30.194 
17:30	23.9	23.9	23.9	68	14.9	1	5	22	0.00	30.199 
17:35	23.9	23.9	23.9	69	15.2	1	3	270	0.00	30.199 
17:40	23.8	23.8	23.8	69	15.1	0	3	22	0.00	30.199 
17:45	23.5	23.5	23.5	68	14.5	1	3	0	0.00	30.206 
17:50	23.3	23.3	23.3	67	14.0	1	4	22	0.00	30.206 
17:55	23.2	23.2	23.2	67	13.9	1	3	0	0.00	30.206 
18:00	23.0	23.0	23.0	67	13.7	1	3	22	0.00	30.203 
18:05	23.0	23.0	23.0	67	13.7	1	3	315	0.00	30.203 
18:10	22.9	22.9	22.9	68	13.9	1	3	22	0.00	30.203 
18:15	22.9	22.9	22.9	68	13.9	1	2	0	0.00	30.202 
18:20	22.9	22.9	22.9	68	13.9	1	5	338	0.00	30.202 
18:25	22.9	22.9	22.9	68	13.9	1	4	0	0.00	30.202 
18:30	22.9	22.9	22.9	67	13.6	1	6	338	0.00	30.209 
18:35	22.7	22.7	22.7	67	13.4	2	5	338	0.00	30.209 
18:40	22.7	22.7	22.7	67	13.4	1	3	292	0.00	30.209 
18:45	22.7	22.7	22.7	68	13.8	2	5	22	0.00	30.205 
18:50	22.5	22.5	22.5	68	13.6	1	4	45	0.00	30.205 
18:55	22.5	22.5	22.5	68	13.6	2	5	0	0.00	30.205 
19:00	22.5	22.5	22.5	68	13.6	1	6	0	0.00	30.201 
19:05	22.5	22.5	22.5	68	13.6	1	3	0	0.00	30.201 
19:10	22.4	22.4	22.4	68	13.5	2	6	315	0.00	30.201 
19:15	22.4	22.4	22.4	68	13.5	2	8	292	0.00	30.197 
19:20	22.4	22.4	22.4	68	13.5	1	4	0	0.00	30.197 
19:25	22.2	22.2	22.2	68	13.3	2	5	0	0.00	30.197 
19:30	22.2	22.2	22.2	68	13.3	2	6	315	0.00	30.201 
19:35	22.2	22.2	22.2	68	13.3	1	4	0	0.00	30.201 
19:40	22.2	22.2	22.2	68	13.3	2	6	315	0.00	30.201 
19:45	22.2	22.2	22.2	69	13.6	1	3	338	0.00	30.202 
19:50	22.1	22.1	22.1	69	13.5	1	6	0	0.00	30.202 
19:55	22.1	22.1	22.1	69	13.5	1	5	22	0.00	30.202 
20:00	21.9	21.9	21.9	69	13.3	1	6	22	0.00	30.198 
20:05	21.9	21.9	21.9	70	13.6	1	4	22	0.00	30.198 
20:10	21.9	21.9	21.9	70	13.6	1	4	0	0.00	30.198 
20:15	21.8	21.8	21.8	70	13.5	1	5	0	0.00	30.199 
20:20	21.6	21.6	21.6	70	13.4	1	3	22	0.00	30.199 
20:25	21.3	21.3	21.3	70	13.1	1	2	315	0.00	30.199 
20:30	21.1	21.1	21.1	70	12.9	1	5	338	0.00	30.196 
20:35	21.0	21.0	21.0	71	13.1	0	3	315	0.00	30.196 
20:40	20.8	20.8	20.8	71	12.9	1	6	45	0.00	30.196 
20:45	20.6	20.6	20.6	71	12.7	0	3	0	0.00	30.190 
20:50	20.5	20.5	20.5	71	12.6	1	3	0	0.00	30.190 
20:55	20.5	20.5	20.5	72	12.9	1	4	338	0.00	30.190 
21:00	20.3	20.3	20.3	72	12.7	0	3	292	0.00	30.185 
21:05	20.2	20.2	20.2	72	12.6	1	3	292	0.00	30.185 
21:10	20.0	20.0	20.0	72	12.5	0	2	338	0.00	30.185 
21:15	20.0	20.0	20.0	73	12.8	1	5	270	0.00	30.187 
21:20	19.9	19.9	19.9	73	12.7	0	2	270	0.00	30.187 
21:25	19.7	19.7	19.7	73	12.5	0	3	0	0.00	30.187 
21:30	19.5	19.5	19.5	73	12.3	0	3	0	0.00	30.190 
21:35	19.5	19.5	19.5	73	12.3	0	1	292	0.00	30.190 
21:40	19.4	19.4	19.4	74	12.5	0	2	292	0.00	30.190 
21:45	19.4	19.4	19.4	74	12.5	0	1	292	0.00	30.195 
21:50	19.2	19.2	19.2	74	12.3	0	1	292	0.00	30.195 
21:55	19.1	19.1	19.1	74	12.2	0	1	292	0.00	30.195 
22:00	18.9	18.9	18.9	75	12.3	0	1	292	0.00	30.188 
22:05	18.8	18.8	18.8	75	12.2	0	1	292	0.00	30.188 
22:10	18.6	18.6	18.6	76	12.3	0	0	---	0.00	30.188 
22:15	18.4	18.4	18.4	76	12.1	0	1	292	0.00	30.187 
22:20	18.3	18.3	18.3	77	12.3	0	1	292	0.00	30.187 
22:25	18.3	18.3	18.3	77	12.3	0	1	292	0.00	30.187 
22:30	18.1	18.1	18.1	77	12.1	0	0	---	0.00	30.185 
22:35	18.0	18.0	18.0	77	12.0	0	1	292	0.00	30.185 
22:40	18.0	18.0	18.0	78	12.3	0	1	292	0.00	30.185 
22:45	17.8	17.8	17.8	78	12.1	0	1	292	0.00	30.184 
22:50	17.8	17.8	17.8	78	12.1	0	0	---	0.00	30.184 
22:55	17.7	17.7	17.7	78	12.0	0	0	---	0.00	30.184 
23:00	17.3	17.3	17.3	78	11.6	0	0	---	0.00	30.186 
23:05	17.2	17.2	17.2	78	11.5	0	0	---	0.00	30.186 
23:10	17.0	17.0	17.0	79	11.6	0	0	---	0.00	30.186 
23:15	16.9	16.9	16.9	79	11.5	0	0	---	0.00	30.186 
23:20	16.7	16.7	16.7	79	11.3	0	0	---	0.00	30.186 
23:25	16.5	16.5	16.5	79	11.1	0	0	---	0.00	30.186 
23:30	16.4	16.4	16.4	79	11.0	0	0	---	0.00	30.192 
23:35	16.1	16.1	16.1	80	11.0	0	0	---	0.00	30.192 
23:40	15.9	15.9	15.9	80	10.8	0	0	---	0.00	30.192 
23:45	15.9	15.9	15.9	80	10.8	0	0	---	0.00	30.197 
23:50	15.6	15.6	15.6	81	10.8	0	0	---	0.00	30.197 
23:55	15.4	15.4	15.4	81	10.6	0	0	---	0.00	30.197 

CoCoRaHS
IN-AL-39
A2 Web Hosting
Creative Commons License
GoDaddy
search engine by freefind advanced

loaded 2018-11-19 10:14:28 • last modified 2010-11-18 10:43:29
Privacy PolicyDisclaimer
• wx.awcolley.com is powered by PmWiki v.2002016 •
• all content (unless otherwise noted) © 2018 A W Colley